Time,TemperatureF,DewpointF,PressureIn,WindDirection,WindDirectionDegrees,WindSpeedMPH,WindSpeedGustMPH,Humidity,HourlyPrecipIn,Conditions,Clouds,dailyrainin,SoftwareType,DateUTC
2013-05-13 00:04:00,42.6,40.7,30.17,West,260,0.0,0.0,93,0.00,,,0.00,Wunderground v.1.15,2013-05-13 05:04:00,
2013-05-13 00:09:00,42.5,40.6,30.17,West,260,0.0,0.0,93,0.00,,,0.00,Wunderground v.1.15,2013-05-13 05:09:00,
2013-05-13 00:15:00,42.5,40.6,30.17,West,260,0.0,0.0,93,0.00,,,0.00,Wunderground v.1.15,2013-05-13 05:15:00,
2013-05-13 00:20:00,42.4,40.5,30.17,West,259,0.0,0.0,93,0.00,,,0.00,Wunderground v.1.15,2013-05-13 05:20:00,
2013-05-13 00:25:00,42.3,40.4,30.17,West,259,0.0,0.0,93,0.00,,,0.00,Wunderground v.1.15,2013-05-13 05:25:00,
2013-05-13 00:30:00,42.3,40.7,30.17,West,260,0.0,0.0,94,0.00,,,0.00,Wunderground v.1.15,2013-05-13 05:30:00,
2013-05-13 00:36:00,42.2,40.6,30.17,West,260,0.0,0.0,94,0.00,,,0.00,Wunderground v.1.15,2013-05-13 05:36:00,
2013-05-13 00:41:00,42.1,40.5,30.17,West,260,0.0,0.0,94,0.00,,,0.00,Wunderground v.1.15,2013-05-13 05:41:00,
2013-05-13 00:46:00,41.9,40.3,30.17,West,260,0.0,0.0,94,0.00,,,0.00,Wunderground v.1.15,2013-05-13 05:46:00,
2013-05-13 00:51:00,42.0,40.7,30.17,West,260,0.0,0.0,95,0.00,,,0.00,Wunderground v.1.15,2013-05-13 05:51:00,
2013-05-13 00:57:00,41.7,40.1,30.17,West,260,0.0,0.0,94,0.00,,,0.00,Wunderground v.1.15,2013-05-13 05:57:00,
2013-05-13 01:03:00,41.7,40.1,30.17,West,260,0.0,0.0,94,0.00,,,0.00,Wunderground v.1.15,2013-05-13 06:03:00,
2013-05-13 01:08:00,41.5,39.9,30.17,West,260,0.0,0.0,94,0.00,,,0.00,Wunderground v.1.15,2013-05-13 06:08:00,
2013-05-13 01:13:00,41.1,39.5,30.17,West,259,0.0,0.0,94,0.00,,,0.00,Wunderground v.1.15,2013-05-13 06:13:00,
2013-05-13 01:19:00,41.0,39.7,30.17,West,260,0.0,0.0,95,0.00,,,0.00,Wunderground v.1.15,2013-05-13 06:19:00,
2013-05-13 01:24:00,41.1,39.8,30.17,West,259,0.0,0.0,95,0.00,,,0.00,Wunderground v.1.15,2013-05-13 06:24:00,
2013-05-13 01:29:00,41.1,39.8,30.17,West,260,0.0,0.0,95,0.00,,,0.00,Wunderground v.1.15,2013-05-13 06:29:00,
2013-05-13 01:35:00,41.1,39.8,30.17,West,259,0.0,0.0,95,0.00,,,0.00,Wunderground v.1.15,2013-05-13 06:35:00,
2013-05-13 01:40:00,40.9,39.6,30.16,West,260,0.0,0.0,95,0.00,,,0.00,Wunderground v.1.15,2013-05-13 06:40:00,
2013-05-13 01:45:00,40.8,39.5,30.16,West,259,0.0,0.0,95,0.00,,,0.00,Wunderground v.1.15,2013-05-13 06:45:00,
2013-05-13 01:50:00,40.9,39.6,30.16,West,260,0.0,0.0,95,0.00,,,0.00,Wunderground v.1.15,2013-05-13 06:50:00,
2013-05-13 01:55:00,40.9,39.6,30.16,West,259,0.0,0.0,95,0.00,,,0.00,Wunderground v.1.15,2013-05-13 06:55:00,
2013-05-13 02:00:00,40.9,39.6,30.16,West,260,0.0,0.0,95,0.00,,,0.00,Wunderground v.1.15,2013-05-13 07:00:00,
2013-05-13 02:06:00,40.9,39.8,30.16,West,259,0.0,0.0,96,0.00,,,0.00,Wunderground v.1.15,2013-05-13 07:06:00,
2013-05-13 02:11:00,40.7,39.4,30.16,West,260,0.0,0.0,95,0.00,,,0.00,Wunderground v.1.15,2013-05-13 07:11:00,
2013-05-13 02:16:00,40.7,39.6,30.16,West,259,0.0,0.0,96,0.00,,,0.00,Wunderground v.1.15,2013-05-13 07:16:00,
2013-05-13 02:22:00,40.7,39.6,30.16,West,259,0.0,0.0,96,0.00,,,0.00,Wunderground v.1.15,2013-05-13 07:22:00,
2013-05-13 02:27:00,40.6,39.5,30.17,West,260,0.0,0.0,96,0.00,,,0.00,Wunderground v.1.15,2013-05-13 07:27:00,
2013-05-13 02:32:00,40.5,39.4,30.17,West,259,0.0,0.0,96,0.00,,,0.00,Wunderground v.1.15,2013-05-13 07:32:00,
2013-05-13 02:37:00,40.3,39.3,30.17,West,259,0.0,0.0,96,0.00,,,0.00,Wunderground v.1.15,2013-05-13 07:37:00,
2013-05-13 02:42:00,40.4,39.4,30.17,West,260,0.0,0.0,96,0.00,,,0.00,Wunderground v.1.15,2013-05-13 07:42:00,
2013-05-13 02:48:00,40.5,39.4,30.17,West,260,0.0,0.0,96,0.00,,,0.00,Wunderground v.1.15,2013-05-13 07:48:00,
2013-05-13 02:53:00,40.6,39.5,30.17,West,259,0.0,0.0,96,0.00,,,0.00,Wunderground v.1.15,2013-05-13 07:53:00,
2013-05-13 02:58:00,40.6,39.5,30.17,West,259,0.0,0.0,96,0.00,,,0.00,Wunderground v.1.15,2013-05-13 07:58:00,
2013-05-13 03:03:00,40.6,39.5,30.17,South,175,0.0,0.0,96,0.00,,,0.00,Wunderground v.1.15,2013-05-13 08:03:00,
2013-05-13 03:09:00,40.6,39.5,30.17,South,174,0.0,0.0,96,0.00,,,0.00,Wunderground v.1.15,2013-05-13 08:09:00,
2013-05-13 03:14:00,40.6,39.5,30.17,South,174,0.0,0.0,96,0.00,,,0.00,Wunderground v.1.15,2013-05-13 08:14:00,
2013-05-13 03:19:00,40.5,39.4,30.17,South,174,0.0,0.0,96,0.00,,,0.00,Wunderground v.1.15,2013-05-13 08:19:00,
2013-05-13 03:24:00,40.4,39.4,30.17,South,174,0.0,0.0,96,0.00,,,0.00,Wunderground v.1.15,2013-05-13 08:24:00,
2013-05-13 03:30:00,40.2,39.2,30.17,South,174,0.0,0.0,96,0.00,,,0.00,Wunderground v.1.15,2013-05-13 08:30:00,
2013-05-13 03:35:00,40.1,39.1,30.17,South,174,0.0,0.0,96,0.00,,,0.00,Wunderground v.1.15,2013-05-13 08:35:00,
2013-05-13 03:40:00,39.9,38.9,30.17,South,174,0.0,0.0,96,0.00,,,0.00,Wunderground v.1.15,2013-05-13 08:40:00,
2013-05-13 03:45:00,39.7,38.7,30.17,South,174,0.0,0.0,96,0.00,,,0.00,Wunderground v.1.15,2013-05-13 08:45:00,
2013-05-13 03:50:00,39.7,38.7,30.17,South,174,0.0,0.0,96,0.00,,,0.00,Wunderground v.1.15,2013-05-13 08:50:00,
2013-05-13 03:56:00,39.8,38.8,30.17,South,174,0.0,0.0,96,0.00,,,0.00,Wunderground v.1.15,2013-05-13 08:56:00,
2013-05-13 04:01:00,39.9,38.9,30.17,South,174,0.0,0.0,96,0.00,,,0.00,Wunderground v.1.15,2013-05-13 09:01:00,
2013-05-13 04:07:00,39.9,38.9,30.17,South,174,0.0,0.0,96,0.00,,,0.00,Wunderground v.1.15,2013-05-13 09:07:00,
2013-05-13 04:12:00,39.9,39.1,30.17,South,174,0.0,0.0,97,0.00,,,0.00,Wunderground v.1.15,2013-05-13 09:12:00,
2013-05-13 04:17:00,39.9,39.1,30.17,South,174,0.0,0.0,97,0.00,,,0.00,Wunderground v.1.15,2013-05-13 09:17:00,
2013-05-13 04:22:00,39.9,39.1,30.17,South,174,0.0,0.0,97,0.00,,,0.00,Wunderground v.1.15,2013-05-13 09:22:00,
2013-05-13 04:27:00,39.9,39.1,30.17,South,175,0.0,0.0,97,0.00,,,0.00,Wunderground v.1.15,2013-05-13 09:27:00,
2013-05-13 04:33:00,39.7,38.9,30.18,South,175,0.0,0.0,97,0.00,,,0.00,Wunderground v.1.15,2013-05-13 09:33:00,
2013-05-13 04:38:00,39.6,38.8,30.18,South,174,0.0,0.0,97,0.00,,,0.00,Wunderground v.1.15,2013-05-13 09:38:00,
2013-05-13 04:43:00,39.5,38.7,30.18,South,174,0.0,0.0,97,0.00,,,0.00,Wunderground v.1.15,2013-05-13 09:43:00,
2013-05-13 04:48:00,39.3,38.5,30.18,South,174,0.0,0.0,97,0.00,,,0.00,Wunderground v.1.15,2013-05-13 09:48:00,
2013-05-13 04:54:00,39.3,38.5,30.18,South,174,0.0,0.0,97,0.00,,,0.00,Wunderground v.1.15,2013-05-13 09:54:00,
2013-05-13 04:59:00,39.2,38.4,30.18,South,174,0.0,0.0,97,0.00,,,0.00,Wunderground v.1.15,2013-05-13 09:59:00,
2013-05-13 05:04:00,39.3,38.5,30.17,South,175,0.0,0.0,97,0.00,,,0.00,Wunderground v.1.15,2013-05-13 10:04:00,
2013-05-13 05:10:00,39.4,38.6,30.17,South,174,0.0,0.0,97,0.00,,,0.00,Wunderground v.1.15,2013-05-13 10:10:00,
2013-05-13 05:15:00,39.4,38.6,30.17,South,176,0.0,0.0,97,0.00,,,0.00,Wunderground v.1.15,2013-05-13 10:15:00,
2013-05-13 05:20:00,39.5,38.7,30.17,South,176,0.0,0.0,97,0.00,,,0.00,Wunderground v.1.15,2013-05-13 10:20:00,
2013-05-13 05:25:00,39.5,38.7,30.17,SSE,163,0.0,0.0,97,0.00,,,0.00,Wunderground v.1.15,2013-05-13 10:25:00,
2013-05-13 05:30:00,39.5,38.7,30.17,SSE,163,0.0,0.0,97,0.00,,,0.00,Wunderground v.1.15,2013-05-13 10:30:00,
2013-05-13 05:36:00,39.3,38.5,30.18,SSE,162,0.0,0.0,97,0.00,,,0.00,Wunderground v.1.15,2013-05-13 10:36:00,
2013-05-13 05:41:00,39.2,38.4,30.18,SSE,162,0.0,0.0,97,0.00,,,0.00,Wunderground v.1.15,2013-05-13 10:41:00,
2013-05-13 05:46:00,39.3,38.5,30.18,SSE,162,0.0,0.0,97,0.00,,,0.00,Wunderground v.1.15,2013-05-13 10:46:00,
2013-05-13 05:51:00,39.3,38.5,30.18,SSE,162,0.0,0.0,97,0.00,,,0.00,Wunderground v.1.15,2013-05-13 10:51:00,
2013-05-13 05:56:00,39.3,38.5,30.18,SSE,162,0.0,0.0,97,0.00,,,0.00,Wunderground v.1.15,2013-05-13 10:56:00,
2013-05-13 06:02:00,39.6,38.8,30.18,SE,134,0.0,0.0,97,0.00,,,0.00,Wunderground v.1.15,2013-05-13 11:02:00,
2013-05-13 06:07:00,40.0,39.2,30.18,SE,134,0.0,0.0,97,0.00,,,0.00,Wunderground v.1.15,2013-05-13 11:07:00,
2013-05-13 06:13:00,40.5,39.7,30.19,SE,134,0.0,0.0,97,0.00,,,0.00,Wunderground v.1.15,2013-05-13 11:13:00,
2013-05-13 06:18:00,40.9,40.1,30.19,SE,134,0.0,0.0,97,0.00,,,0.00,Wunderground v.1.15,2013-05-13 11:18:00,
2013-05-13 06:23:00,41.4,40.6,30.19,SE,134,0.0,0.0,97,0.00,,,0.00,Wunderground v.1.15,2013-05-13 11:23:00,
2013-05-13 06:29:00,41.7,40.9,30.19,SE,134,0.0,0.0,97,0.00,,,0.00,Wunderground v.1.15,2013-05-13 11:29:00,
2013-05-13 06:34:00,41.9,41.1,30.19,SE,134,0.0,0.0,97,0.00,,,0.00,Wunderground v.1.15,2013-05-13 11:34:00,
2013-05-13 06:39:00,42.3,41.5,30.20,SE,134,0.0,0.0,97,0.00,,,0.00,Wunderground v.1.15,2013-05-13 11:39:00,
2013-05-13 06:44:00,42.5,41.7,30.20,SE,134,0.0,0.0,97,0.00,,,0.00,Wunderground v.1.15,2013-05-13 11:44:00,
2013-05-13 06:49:00,42.9,42.1,30.20,SE,134,0.0,0.0,97,0.00,,,0.00,Wunderground v.1.15,2013-05-13 11:49:00,
2013-05-13 06:54:00,43.5,42.7,30.20,SE,134,0.0,0.0,97,0.00,,,0.00,Wunderground v.1.15,2013-05-13 11:54:00,
2013-05-13 07:00:00,44.4,43.6,30.20,SE,134,0.0,0.0,97,0.00,,,0.00,Wunderground v.1.15,2013-05-13 12:00:00,
2013-05-13 07:06:00,45.1,44.3,30.20,SE,134,0.0,0.0,97,0.00,,,0.00,Wunderground v.1.15,2013-05-13 12:06:00,
2013-05-13 07:11:00,45.7,44.9,30.21,SE,134,0.0,0.0,97,0.00,,,0.00,Wunderground v.1.15,2013-05-13 12:11:00,
2013-05-13 07:16:00,46.7,45.9,30.21,SSW,207,0.0,0.0,97,0.00,,,0.00,Wunderground v.1.15,2013-05-13 12:16:00,
2013-05-13 07:21:00,47.3,46.2,30.21,SSW,203,0.0,0.0,96,0.00,,,0.00,Wunderground v.1.15,2013-05-13 12:21:00,
2013-05-13 07:26:00,48.2,47.1,30.21,SSW,201,0.0,0.0,96,0.00,,,0.00,Wunderground v.1.15,2013-05-13 12:26:00,
2013-05-13 07:32:00,48.5,46.9,30.21,WSW,257,0.0,0.0,94,0.00,,,0.00,Wunderground v.1.15,2013-05-13 12:32:00,
2013-05-13 07:37:00,48.7,46.5,30.21,SW,225,0.0,0.0,92,0.00,,,0.00,Wunderground v.1.15,2013-05-13 12:37:00,
2013-05-13 07:43:00,49.1,45.7,30.22,West,266,1.0,4.0,88,0.00,,,0.00,Wunderground v.1.15,2013-05-13 12:43:00,
2013-05-13 07:48:00,49.4,45.1,30.22,West,276,2.0,4.0,85,0.00,,,0.00,Wunderground v.1.15,2013-05-13 12:48:00,
2013-05-13 07:53:00,49.9,44.9,30.22,SW,228,3.0,4.0,83,0.00,,,0.00,Wunderground v.1.15,2013-05-13 12:53:00,
2013-05-13 07:59:00,50.4,44.1,30.22,West,262,3.0,6.0,79,0.00,,,0.00,Wunderground v.1.15,2013-05-13 12:59:00,
2013-05-13 08:05:00,50.9,44.9,30.22,West,264,3.0,4.0,80,0.00,,,0.00,Wunderground v.1.15,2013-05-13 13:05:00,
2013-05-13 08:10:00,51.4,45.1,30.22,West,259,3.0,4.0,79,0.00,,,0.00,Wunderground v.1.15,2013-05-13 13:10:00,
2013-05-13 08:16:00,51.9,45.6,30.22,West,261,3.0,5.0,79,0.00,,,0.00,Wunderground v.1.15,2013-05-13 13:16:00,
2013-05-13 08:21:00,52.4,44.7,30.23,West,273,4.0,5.0,75,0.00,,,0.00,Wunderground v.1.15,2013-05-13 13:21:00,
2013-05-13 08:26:00,53.0,44.9,30.23,WSW,249,4.0,5.0,74,0.00,,,0.00,Wunderground v.1.15,2013-05-13 13:26:00,
2013-05-13 08:31:00,53.6,45.2,30.23,West,278,4.0,7.0,73,0.00,,,0.00,Wunderground v.1.15,2013-05-13 13:31:00,
2013-05-13 08:36:00,53.9,42.8,30.23,West,269,5.0,8.0,66,0.00,,,0.00,Wunderground v.1.15,2013-05-13 13:36:00,
2013-05-13 08:41:00,54.3,43.2,30.23,West,270,5.0,6.0,66,0.00,,,0.00,Wunderground v.1.15,2013-05-13 13:41:00,
2013-05-13 08:47:00,54.7,43.2,30.23,West,260,4.0,6.0,65,0.00,,,0.00,Wunderground v.1.15,2013-05-13 13:47:00,
2013-05-13 08:52:00,55.1,43.5,30.23,WSW,255,4.0,5.0,65,0.00,,,0.00,Wunderground v.1.15,2013-05-13 13:52:00,
2013-05-13 08:57:00,55.7,44.5,30.23,WNW,283,3.0,6.0,66,0.00,,,0.00,Wunderground v.1.15,2013-05-13 13:57:00,
2013-05-13 09:03:00,56.1,42.8,30.23,SSW,208,4.0,5.0,61,0.00,,,0.00,Wunderground v.1.15,2013-05-13 14:03:00,
2013-05-13 09:08:00,56.7,43.0,30.23,WNW,290,5.0,9.0,60,0.00,,,0.00,Wunderground v.1.15,2013-05-13 14:08:00,
2013-05-13 09:13:00,57.0,43.7,30.24,WSW,254,5.0,6.0,61,0.00,,,0.00,Wunderground v.1.15,2013-05-13 14:13:00,
2013-05-13 09:18:00,57.4,44.1,30.24,West,266,5.0,6.0,61,0.00,,,0.00,Wunderground v.1.15,2013-05-13 14:18:00,
2013-05-13 09:23:00,57.6,42.9,30.24,WNW,295,4.0,4.0,58,0.00,,,0.00,Wunderground v.1.15,2013-05-13 14:23:00,
2013-05-13 09:28:00,58.0,41.4,30.23,WNW,291,5.0,8.0,54,0.00,,,0.00,Wunderground v.1.15,2013-05-13 14:28:00,
2013-05-13 09:34:00,58.8,42.2,30.23,West,274,6.0,8.0,54,0.00,,,0.00,Wunderground v.1.15,2013-05-13 14:34:00,
2013-05-13 09:39:00,59.1,42.0,30.24,WNW,287,6.0,8.0,53,0.00,,,0.00,Wunderground v.1.15,2013-05-13 14:39:00,
2013-05-13 09:44:00,59.0,41.4,30.23,WNW,297,6.0,8.0,52,0.00,,,0.00,Wunderground v.1.15,2013-05-13 14:44:00,
2013-05-13 09:49:00,59.3,40.7,30.23,West,269,6.0,8.0,50,0.00,,,0.00,Wunderground v.1.15,2013-05-13 14:49:00,
2013-05-13 09:55:00,60.0,39.7,30.23,WNW,290,5.0,9.0,47,0.00,,,0.00,Wunderground v.1.15,2013-05-13 14:55:00,
2013-05-13 10:00:00,60.2,40.4,30.24,WNW,300,5.0,5.0,48,0.00,,,0.00,Wunderground v.1.15,2013-05-13 15:00:00,
2013-05-13 10:06:00,60.7,40.3,30.24,WNW,297,5.0,8.0,47,0.00,,,0.00,Wunderground v.1.15,2013-05-13 15:06:00,
2013-05-13 10:11:00,60.5,37.3,30.24,WNW,303,5.0,7.0,42,0.00,,,0.00,Wunderground v.1.15,2013-05-13 15:11:00,
2013-05-13 10:16:00,60.9,37.6,30.24,West,281,5.0,7.0,42,0.00,,,0.00,Wunderground v.1.15,2013-05-13 15:16:00,
2013-05-13 10:21:00,61.0,37.7,30.23,NW,314,6.0,6.0,42,0.00,,,0.00,Wunderground v.1.15,2013-05-13 15:21:00,
2013-05-13 10:26:00,61.2,36.0,30.23,West,266,7.0,11.0,39,0.00,,,0.00,Wunderground v.1.15,2013-05-13 15:26:00,
2013-05-13 10:32:00,61.3,36.8,30.24,WNW,298,7.0,7.0,40,0.00,,,0.00,Wunderground v.1.15,2013-05-13 15:32:00,
2013-05-13 10:37:00,61.3,35.5,30.24,WNW,287,6.0,8.0,38,0.00,,,0.00,Wunderground v.1.15,2013-05-13 15:37:00,
2013-05-13 10:42:00,61.4,34.2,30.24,WSW,238,5.0,11.0,36,0.00,,,0.00,Wunderground v.1.15,2013-05-13 15:42:00,
2013-05-13 10:47:00,62.0,34.7,30.24,WNW,289,6.0,11.0,36,0.00,,,0.00,Wunderground v.1.15,2013-05-13 15:47:00,
2013-05-13 10:53:00,62.0,34.7,30.23,WSW,257,7.0,7.0,36,0.00,,,0.00,Wunderground v.1.15,2013-05-13 15:53:00,
2013-05-13 10:58:00,62.2,35.6,30.23,WNW,301,6.0,13.0,37,0.00,,,0.00,Wunderground v.1.15,2013-05-13 15:58:00,
2013-05-13 11:04:00,62.8,36.1,30.24,NW,314,6.0,7.0,37,0.00,,,0.00,Wunderground v.1.15,2013-05-13 16:04:00,
2013-05-13 11:09:00,62.6,37.3,30.23,WNW,293,5.0,9.0,39,0.00,,,0.00,Wunderground v.1.15,2013-05-13 16:09:00,
2013-05-13 11:14:00,62.8,36.1,30.23,WNW,298,5.0,6.0,37,0.00,,,0.00,Wunderground v.1.15,2013-05-13 16:14:00,
2013-05-13 11:19:00,62.8,35.4,30.23,WNW,291,4.0,6.0,36,0.00,,,0.00,Wunderground v.1.15,2013-05-13 16:19:00,
2013-05-13 11:25:00,63.2,39.1,30.23,NW,304,5.0,8.0,41,0.00,,,0.00,Wunderground v.1.15,2013-05-13 16:25:00,
2013-05-13 11:30:00,63.5,34.6,30.23,NW,309,8.0,8.0,34,0.00,,,0.00,Wunderground v.1.15,2013-05-13 16:30:00,
2013-05-13 11:35:00,63.3,32.1,30.23,SW,224,7.0,10.0,31,0.00,,,0.00,Wunderground v.1.15,2013-05-13 16:35:00,
2013-05-13 11:40:00,63.7,35.5,30.23,NW,311,4.0,4.0,35,0.00,,,0.00,Wunderground v.1.15,2013-05-13 16:40:00,
2013-05-13 11:45:00,63.4,34.5,30.23,West,271,2.0,6.0,34,0.00,,,0.00,Wunderground v.1.15,2013-05-13 16:45:00,
2013-05-13 11:50:00,64.2,36.0,30.23,NW,307,4.0,9.0,35,0.00,,,0.00,Wunderground v.1.15,2013-05-13 16:50:00,
2013-05-13 11:55:00,63.8,34.1,30.23,North,358,6.0,9.0,33,0.00,,,0.00,Wunderground v.1.15,2013-05-13 16:55:00,
2013-05-13 12:00:00,63.8,34.9,30.23,NNW,343,5.0,5.0,34,0.00,,,0.00,Wunderground v.1.15,2013-05-13 17:00:00,
2013-05-13 12:06:00,64.3,37.5,30.23,WNW,289,5.0,9.0,37,0.00,,,0.00,Wunderground v.1.15,2013-05-13 17:06:00,
2013-05-13 12:11:00,64.1,34.4,30.22,South,187,5.0,5.0,33,0.00,,,0.00,Wunderground v.1.15,2013-05-13 17:11:00,
2013-05-13 12:16:00,64.3,33.8,30.22,North,11,4.0,11.0,32,0.00,,,0.00,Wunderground v.1.15,2013-05-13 17:16:00,
2013-05-13 12:21:00,64.0,35.0,30.22,SSW,205,4.0,4.0,34,0.00,,,0.00,Wunderground v.1.15,2013-05-13 17:21:00,
2013-05-13 12:27:00,64.6,35.6,30.22,WNW,289,3.0,9.0,34,0.00,,,0.00,Wunderground v.1.15,2013-05-13 17:27:00,
2013-05-13 12:32:00,64.9,37.3,30.22,WNW,283,6.0,9.0,36,0.00,,,0.00,Wunderground v.1.15,2013-05-13 17:32:00,
2013-05-13 12:37:00,64.6,36.3,30.22,NNW,340,7.0,9.0,35,0.00,,,0.00,Wunderground v.1.15,2013-05-13 17:37:00,
2013-05-13 12:42:00,64.7,36.4,30.22,NW,314,7.0,7.0,35,0.00,,,0.00,Wunderground v.1.15,2013-05-13 17:42:00,
2013-05-13 12:48:00,64.7,35.7,30.21,NNW,330,6.0,7.0,34,0.00,,,0.00,Wunderground v.1.15,2013-05-13 17:48:00,
2013-05-13 12:53:00,64.7,34.9,30.21,NW,312,5.0,6.0,33,0.00,,,0.00,Wunderground v.1.15,2013-05-13 17:53:00,
2013-05-13 12:58:00,64.9,36.6,30.21,WNW,293,5.0,8.0,35,0.00,,,0.00,Wunderground v.1.15,2013-05-13 17:58:00,
2013-05-13 13:04:00,65.1,37.5,30.21,WNW,291,7.0,11.0,36,0.00,,,0.00,Wunderground v.1.15,2013-05-13 18:04:00,
2013-05-13 13:09:00,65.3,37.6,30.21,NW,308,7.0,11.0,36,0.00,,,0.00,Wunderground v.1.15,2013-05-13 18:09:00,
2013-05-13 13:14:00,65.4,35.5,30.21,West,280,5.0,8.0,33,0.00,,,0.00,Wunderground v.1.15,2013-05-13 18:14:00,
2013-05-13 13:19:00,65.5,37.1,30.21,West,266,6.0,8.0,35,0.00,,,0.00,Wunderground v.1.15,2013-05-13 18:19:00,
2013-05-13 13:24:00,65.7,40.1,30.20,West,266,6.0,6.0,39,0.00,,,0.00,Wunderground v.1.15,2013-05-13 18:24:00,
2013-05-13 13:29:00,65.9,36.7,30.20,West,274,5.0,9.0,34,0.00,,,0.00,Wunderground v.1.15,2013-05-13 18:29:00,
2013-05-13 13:34:00,65.7,33.4,30.20,WNW,302,6.0,9.0,30,0.00,,,0.00,Wunderground v.1.15,2013-05-13 18:34:00,
2013-05-13 13:40:00,65.5,37.8,30.20,WSW,240,5.0,5.0,36,0.00,,,0.00,Wunderground v.1.15,2013-05-13 18:40:00,
2013-05-13 13:45:00,65.6,34.9,30.19,WNW,295,3.0,5.0,32,0.00,,,0.00,Wunderground v.1.15,2013-05-13 18:45:00,
2013-05-13 13:50:00,65.9,37.5,30.19,NW,309,4.0,5.0,35,0.00,,,0.00,Wunderground v.1.15,2013-05-13 18:50:00,
2013-05-13 13:55:00,66.2,38.4,30.19,NNW,341,5.0,8.0,36,0.00,,,0.00,Wunderground v.1.15,2013-05-13 18:55:00,
2013-05-13 14:00:00,66.2,36.2,30.19,West,269,5.0,5.0,33,0.00,,,0.00,Wunderground v.1.15,2013-05-13 19:00:00,
2013-05-13 14:06:00,66.5,37.2,30.19,NW,304,4.0,11.0,34,0.00,,,0.00,Wunderground v.1.15,2013-05-13 19:06:00,
2013-05-13 14:11:00,66.4,35.6,30.19,WNW,288,5.0,8.0,32,0.00,,,0.00,Wunderground v.1.15,2013-05-13 19:11:00,
2013-05-13 14:16:00,66.3,37.8,30.18,West,281,7.0,9.0,35,0.00,,,0.00,Wunderground v.1.15,2013-05-13 19:16:00,
2013-05-13 14:22:00,66.7,38.2,30.18,WNW,300,6.0,6.0,35,0.00,,,0.00,Wunderground v.1.15,2013-05-13 19:22:00,
2013-05-13 14:27:00,67.0,39.9,30.18,NW,308,5.0,7.0,37,0.00,,,0.00,Wunderground v.1.15,2013-05-13 19:27:00,
2013-05-13 14:32:00,66.7,36.7,30.18,NE,43,5.0,6.0,33,0.00,,,0.00,Wunderground v.1.15,2013-05-13 19:32:00,
2013-05-13 14:37:00,66.8,36.0,30.17,WNW,298,4.0,6.0,32,0.00,,,0.00,Wunderground v.1.15,2013-05-13 19:37:00,
2013-05-13 14:42:00,67.0,37.7,30.17,WNW,285,5.0,10.0,34,0.00,,,0.00,Wunderground v.1.15,2013-05-13 19:42:00,
2013-05-13 14:48:00,66.7,35.1,30.17,NW,304,6.0,10.0,31,0.00,,,0.00,Wunderground v.1.15,2013-05-13 19:48:00,
2013-05-13 14:53:00,66.8,35.2,30.17,WNW,287,5.0,6.0,31,0.00,,,0.00,Wunderground v.1.15,2013-05-13 19:53:00,
2013-05-13 14:58:00,66.9,33.6,30.17,West,272,4.0,7.0,29,0.00,,,0.00,Wunderground v.1.15,2013-05-13 19:58:00,
2013-05-13 15:04:00,67.1,35.4,30.17,NNE,15,3.0,5.0,31,0.00,,,0.00,Wunderground v.1.15,2013-05-13 20:04:00,
2013-05-13 15:09:00,67.6,36.7,30.17,West,278,3.0,5.0,32,0.00,,,0.00,Wunderground v.1.15,2013-05-13 20:09:00,
2013-05-13 15:14:00,67.7,36.0,30.16,WNW,285,3.0,4.0,31,0.00,,,0.00,Wunderground v.1.15,2013-05-13 20:14:00,
2013-05-13 15:19:00,67.6,35.9,30.16,WNW,298,3.0,5.0,31,0.00,,,0.00,Wunderground v.1.15,2013-05-13 20:19:00,
2013-05-13 15:24:00,68.0,35.4,30.16,SSE,153,2.0,3.0,30,0.00,,,0.00,Wunderground v.1.15,2013-05-13 20:24:00,
2013-05-13 15:29:00,68.5,36.7,30.16,SSW,205,1.0,3.0,31,0.00,,,0.00,Wunderground v.1.15,2013-05-13 20:29:00,
2013-05-13 15:34:00,68.4,38.9,30.16,WNW,288,3.0,8.0,34,0.00,,,0.00,Wunderground v.1.15,2013-05-13 20:34:00,
2013-05-13 15:39:00,68.2,38.7,30.15,WNW,287,5.0,10.0,34,0.00,,,0.00,Wunderground v.1.15,2013-05-13 20:39:00,
2013-05-13 15:45:00,68.2,38.7,30.15,WNW,299,6.0,11.0,34,0.00,,,0.00,Wunderground v.1.15,2013-05-13 20:45:00,
2013-05-13 15:50:00,68.1,37.1,30.15,WNW,285,6.0,6.0,32,0.00,,,0.00,Wunderground v.1.15,2013-05-13 20:50:00,
2013-05-13 15:55:00,68.3,38.1,30.15,NW,308,4.0,7.0,33,0.00,,,0.00,Wunderground v.1.15,2013-05-13 20:55:00,
2013-05-13 16:00:00,68.2,35.6,30.15,WNW,301,4.0,4.0,30,0.00,,,0.00,Wunderground v.1.15,2013-05-13 21:00:00,
2013-05-13 16:06:00,68.4,38.2,30.14,NW,309,3.0,5.0,33,0.00,,,0.00,Wunderground v.1.15,2013-05-13 21:06:00,
2013-05-13 16:11:00,68.6,35.9,30.14,NW,314,2.0,6.0,30,0.00,,,0.00,Wunderground v.1.15,2013-05-13 21:11:00,
2013-05-13 16:17:00,68.5,35.8,30.14,WNW,302,4.0,8.0,30,0.00,,,0.00,Wunderground v.1.15,2013-05-13 21:17:00,
2013-05-13 16:22:00,68.4,36.6,30.14,WNW,291,5.0,5.0,31,0.00,,,0.00,Wunderground v.1.15,2013-05-13 21:22:00,
2013-05-13 16:27:00,68.5,37.5,30.14,NW,304,5.0,7.0,32,0.00,,,0.00,Wunderground v.1.15,2013-05-13 21:27:00,
2013-05-13 16:32:00,68.3,34.8,30.14,NW,319,4.0,5.0,29,0.00,,,0.00,Wunderground v.1.15,2013-05-13 21:32:00,
2013-05-13 16:38:00,68.3,35.6,30.14,NW,307,3.0,6.0,30,0.00,,,0.00,Wunderground v.1.15,2013-05-13 21:38:00,
2013-05-13 16:43:00,68.6,35.1,30.14,WNW,295,3.0,3.0,29,0.00,,,0.00,Wunderground v.1.15,2013-05-13 21:43:00,
2013-05-13 16:48:00,69.1,37.2,30.13,WNW,298,2.0,6.0,31,0.00,,,0.00,Wunderground v.1.15,2013-05-13 21:48:00,
2013-05-13 16:53:00,68.9,37.8,30.13,WNW,299,4.0,6.0,32,0.00,,,0.00,Wunderground v.1.15,2013-05-13 21:53:00,
2013-05-13 16:58:00,68.6,35.9,30.13,WNW,293,5.0,6.0,30,0.00,,,0.00,Wunderground v.1.15,2013-05-13 21:58:00,
2013-05-13 17:04:00,68.5,37.5,30.13,NW,309,5.0,8.0,32,0.00,,,0.00,Wunderground v.1.15,2013-05-13 22:04:00,
2013-05-13 17:09:00,68.7,36.8,30.13,NW,308,5.0,8.0,31,0.00,,,0.00,Wunderground v.1.15,2013-05-13 22:09:00,
2013-05-13 17:14:00,68.5,38.2,30.13,NNW,335,5.0,8.0,33,0.00,,,0.00,Wunderground v.1.15,2013-05-13 22:14:00,
2013-05-13 17:19:00,68.5,34.1,30.13,NNW,340,4.0,8.0,28,0.00,,,0.00,Wunderground v.1.15,2013-05-13 22:19:00,
2013-05-13 17:25:00,69.0,37.9,30.13,NNE,14,2.0,4.0,32,0.00,,,0.00,Wunderground v.1.15,2013-05-13 22:25:00,
2013-05-13 17:30:00,69.0,36.3,30.12,North,352,2.0,4.0,30,0.00,,,0.00,Wunderground v.1.15,2013-05-13 22:30:00,
2013-05-13 17:35:00,68.7,37.6,30.12,WNW,287,3.0,5.0,32,0.00,,,0.00,Wunderground v.1.15,2013-05-13 22:35:00,
2013-05-13 17:41:00,68.8,37.7,30.12,WNW,288,3.0,4.0,32,0.00,,,0.00,Wunderground v.1.15,2013-05-13 22:41:00,
2013-05-13 17:46:00,68.9,37.0,30.12,SW,228,1.0,4.0,31,0.00,,,0.00,Wunderground v.1.15,2013-05-13 22:46:00,
2013-05-13 17:51:00,69.1,35.5,30.12,WNW,287,1.0,1.0,29,0.00,,,0.00,Wunderground v.1.15,2013-05-13 22:51:00,
2013-05-13 17:56:00,68.8,35.2,30.12,WNW,283,1.0,3.0,29,0.00,,,0.00,Wunderground v.1.15,2013-05-13 22:56:00,
2013-05-13 18:02:00,69.0,36.3,30.12,WSW,255,1.0,1.0,30,0.00,,,0.00,Wunderground v.1.15,2013-05-13 23:02:00,
2013-05-13 18:07:00,69.4,39.0,30.12,WSW,256,0.0,3.0,33,0.00,,,0.00,Wunderground v.1.15,2013-05-13 23:07:00,
2013-05-13 18:13:00,69.4,36.6,30.11,SW,221,1.0,3.0,30,0.00,,,0.00,Wunderground v.1.15,2013-05-13 23:13:00,
2013-05-13 18:18:00,69.1,40.3,30.11,West,278,2.0,4.0,35,0.00,,,0.00,Wunderground v.1.15,2013-05-13 23:18:00,
2013-05-13 18:23:00,68.9,40.1,30.11,West,267,3.0,3.0,35,0.00,,,0.00,Wunderground v.1.15,2013-05-13 23:23:00,
2013-05-13 18:29:00,69.0,37.9,30.11,West,271,2.0,3.0,32,0.00,,,0.00,Wunderground v.1.15,2013-05-13 23:29:00,
2013-05-13 18:34:00,68.8,38.5,30.11,West,271,2.0,5.0,33,0.00,,,0.00,Wunderground v.1.15,2013-05-13 23:34:00,
2013-05-13 18:39:00,68.7,37.6,30.11,WSW,243,3.0,5.0,32,0.00,,,0.00,Wunderground v.1.15,2013-05-13 23:39:00,
2013-05-13 18:44:00,68.7,38.4,30.11,WNW,285,2.0,3.0,33,0.00,,,0.00,Wunderground v.1.15,2013-05-13 23:44:00,
2013-05-13 18:49:00,69.0,40.2,30.11,SW,225,1.0,3.0,35,0.00,,,0.00,Wunderground v.1.15,2013-05-13 23:49:00,
2013-05-13 18:54:00,69.1,38.0,30.11,SW,222,0.0,3.0,32,0.00,,,0.00,Wunderground v.1.15,2013-05-13 23:54:00,
2013-05-13 18:59:00,69.3,45.2,30.11,SSW,200,0.0,3.0,42,0.00,,,0.00,Wunderground v.1.15,2013-05-13 23:59:00,
2013-05-13 19:05:00,69.1,43.1,30.11,SSW,200,0.0,0.0,39,0.00,,,0.00,Wunderground v.1.15,2013-05-14 00:05:00,
2013-05-13 19:10:00,68.6,42.0,30.11,SSW,200,0.0,0.0,38,0.00,,,0.00,Wunderground v.1.15,2013-05-14 00:10:00,
2013-05-13 19:15:00,67.8,41.3,30.11,South,179,0.0,0.0,38,0.00,,,0.00,Wunderground v.1.15,2013-05-14 00:15:00,
2013-05-13 19:20:00,66.9,41.1,30.11,South,179,0.0,0.0,39,0.00,,,0.00,Wunderground v.1.15,2013-05-14 00:20:00,
2013-05-13 19:25:00,66.3,40.6,30.11,South,179,0.0,0.0,39,0.00,,,0.00,Wunderground v.1.15,2013-05-14 00:25:00,
2013-05-13 19:31:00,64.8,39.2,30.11,South,177,0.0,0.0,39,0.00,,,0.00,Wunderground v.1.15,2013-05-14 00:31:00,
2013-05-13 19:36:00,63.5,39.4,30.12,South,177,0.0,0.0,41,0.00,,,0.00,Wunderground v.1.15,2013-05-14 00:36:00,
2013-05-13 19:41:00,62.3,38.9,30.12,South,177,0.0,0.0,42,0.00,,,0.00,Wunderground v.1.15,2013-05-14 00:41:00,
2013-05-13 19:47:00,61.3,39.2,30.12,South,179,0.0,0.0,44,0.00,,,0.00,Wunderground v.1.15,2013-05-14 00:47:00,
2013-05-13 19:52:00,60.4,38.9,30.12,South,177,0.0,0.0,45,0.00,,,0.00,Wunderground v.1.15,2013-05-14 00:52:00,
2013-05-13 19:57:00,59.7,39.4,30.12,South,177,0.0,0.0,47,0.00,,,0.00,Wunderground v.1.15,2013-05-14 00:57:00,
2013-05-13 20:03:00,58.9,40.8,30.12,South,177,0.0,0.0,51,0.00,,,0.00,Wunderground v.1.15,2013-05-14 01:03:00,
2013-05-13 20:08:00,58.3,42.7,30.12,SE,141,0.0,0.0,56,0.00,,,0.00,Wunderground v.1.15,2013-05-14 01:08:00,
2013-05-13 20:13:00,57.9,42.3,30.12,SE,141,0.0,0.0,56,0.00,,,0.00,Wunderground v.1.15,2013-05-14 01:13:00,
2013-05-13 20:18:00,57.5,44.6,30.12,SE,141,0.0,0.0,62,0.00,,,0.00,Wunderground v.1.15,2013-05-14 01:18:00,
2013-05-13 20:23:00,56.8,43.9,30.12,SE,141,0.0,0.0,62,0.00,,,0.00,Wunderground v.1.15,2013-05-14 01:23:00,
2013-05-13 20:28:00,56.4,43.1,30.12,SE,141,0.0,0.0,61,0.00,,,0.00,Wunderground v.1.15,2013-05-14 01:28:00,
2013-05-13 20:33:00,56.1,43.7,30.12,SE,141,0.0,0.0,63,0.00,,,0.00,Wunderground v.1.15,2013-05-14 01:33:00,
2013-05-13 20:39:00,55.7,42.5,30.12,SE,141,0.0,0.0,61,0.00,,,0.00,Wunderground v.1.15,2013-05-14 01:39:00,
2013-05-13 20:44:00,55.4,43.0,30.12,SE,141,0.0,0.0,63,0.00,,,0.00,Wunderground v.1.15,2013-05-14 01:44:00,
2013-05-13 20:49:00,55.1,42.3,30.12,SE,141,0.0,0.0,62,0.00,,,0.00,Wunderground v.1.15,2013-05-14 01:49:00,
2013-05-13 20:55:00,55.0,42.2,30.12,SE,141,0.0,0.0,62,0.00,,,0.00,Wunderground v.1.15,2013-05-14 01:55:00,
2013-05-13 21:00:00,54.8,42.0,30.12,SE,141,0.0,0.0,62,0.00,,,0.00,Wunderground v.1.15,2013-05-14 02:00:00,
2013-05-13 21:06:00,54.6,42.3,30.12,SE,141,0.0,0.0,63,0.00,,,0.00,Wunderground v.1.15,2013-05-14 02:06:00,
2013-05-13 21:11:00,54.4,42.5,30.12,SE,134,0.0,0.0,64,0.00,,,0.00,Wunderground v.1.15,2013-05-14 02:11:00,
2013-05-13 21:16:00,54.2,43.1,30.12,SE,131,0.0,0.0,66,0.00,,,0.00,Wunderground v.1.15,2013-05-14 02:16:00,
2013-05-13 21:21:00,54.0,42.9,30.12,SE,131,0.0,0.0,66,0.00,,,0.00,Wunderground v.1.15,2013-05-14 02:21:00,
2013-05-13 21:26:00,53.9,42.8,30.12,SE,131,0.0,0.0,66,0.00,,,0.00,Wunderground v.1.15,2013-05-14 02:26:00,
2013-05-13 21:31:00,53.7,43.0,30.12,SE,131,0.0,0.0,67,0.00,,,0.00,Wunderground v.1.15,2013-05-14 02:31:00,
2013-05-13 21:37:00,53.5,42.4,30.12,SE,131,0.0,0.0,66,0.00,,,0.00,Wunderground v.1.15,2013-05-14 02:37:00,
2013-05-13 21:42:00,53.4,42.7,30.12,SE,131,0.0,0.0,67,0.00,,,0.00,Wunderground v.1.15,2013-05-14 02:42:00,
2013-05-13 21:47:00,53.3,43.4,30.12,SE,131,0.0,0.0,69,0.00,,,0.00,Wunderground v.1.15,2013-05-14 02:47:00,
2013-05-13 21:52:00,53.1,42.8,30.12,SE,131,0.0,0.0,68,0.00,,,0.00,Wunderground v.1.15,2013-05-14 02:52:00,
2013-05-13 21:58:00,52.9,42.6,30.12,SE,131,0.0,0.0,68,0.00,,,0.00,Wunderground v.1.15,2013-05-14 02:58:00,
2013-05-13 22:03:00,52.8,42.5,30.12,SE,131,0.0,0.0,68,0.00,,,0.00,Wunderground v.1.15,2013-05-14 03:03:00,
2013-05-13 22:09:00,52.7,43.2,30.12,SE,131,0.0,0.0,70,0.00,,,0.00,Wunderground v.1.15,2013-05-14 03:09:00,
2013-05-13 22:14:00,52.6,43.5,30.12,SE,131,0.0,0.0,71,0.00,,,0.00,Wunderground v.1.15,2013-05-14 03:14:00,
2013-05-13 22:20:00,52.5,43.4,30.12,SE,131,0.0,0.0,71,0.00,,,0.00,Wunderground v.1.15,2013-05-14 03:20:00,
2013-05-13 22:26:00,52.5,44.4,30.11,SE,131,0.0,0.0,74,0.00,,,0.00,Wunderground v.1.15,2013-05-14 03:26:00,
2013-05-13 22:31:00,52.3,43.9,30.11,SE,131,0.0,0.0,73,0.00,,,0.00,Wunderground v.1.15,2013-05-14 03:31:00,
2013-05-13 22:36:00,52.1,43.7,30.11,SE,131,0.0,0.0,73,0.00,,,0.00,Wunderground v.1.15,2013-05-14 03:36:00,
2013-05-13 22:41:00,52.0,44.0,30.11,SE,131,0.0,0.0,74,0.00,,,0.00,Wunderground v.1.15,2013-05-14 03:41:00,
2013-05-13 22:46:00,51.9,43.9,30.11,SE,131,0.0,0.0,74,0.00,,,0.00,Wunderground v.1.15,2013-05-14 03:46:00,
2013-05-13 22:51:00,51.8,44.5,30.11,SE,131,0.0,0.0,76,0.00,,,0.00,Wunderground v.1.15,2013-05-14 03:51:00,
2013-05-13 22:57:00,51.6,44.6,30.11,SE,131,0.0,0.0,77,0.00,,,0.00,Wunderground v.1.15,2013-05-14 03:57:00,
2013-05-13 23:01:00,51.4,44.8,30.10,SE,131,0.0,0.0,78,0.00,,,0.00,Wunderground v.1.15,2013-05-14 04:01:00,
2013-05-13 23:02:00,51.3,44.7,30.10,SE,131,0.0,0.0,78,0.00,,,0.00,Wunderground v.1.15,2013-05-14 04:02:00,
2013-05-13 23:03:00,51.3,44.3,30.10,SE,131,0.0,0.0,77,0.00,,,0.00,Wunderground v.1.15,2013-05-14 04:03:00,
2013-05-13 23:04:00,51.2,44.2,30.10,SE,131,0.0,0.0,77,0.00,,,0.00,Wunderground v.1.15,2013-05-14 04:04:00,
2013-05-13 23:07:00,51.1,44.5,30.10,SE,131,0.0,0.0,78,0.00,,,0.00,Wunderground v.1.15,2013-05-14 04:07:00,
2013-05-13 23:12:00,51.0,44.4,30.10,SE,131,0.0,0.0,78,0.00,,,0.00,Wunderground v.1.15,2013-05-14 04:12:00,
2013-05-13 23:17:00,50.8,44.2,30.10,SE,131,0.0,0.0,78,0.00,,,0.00,Wunderground v.1.15,2013-05-14 04:17:00,
2013-05-13 23:23:00,50.7,44.4,30.10,SE,131,0.0,0.0,79,0.00,,,0.00,Wunderground v.1.15,2013-05-14 04:23:00,
2013-05-13 23:28:00,50.6,44.0,30.10,SE,131,0.0,0.0,78,0.00,,,0.00,Wunderground v.1.15,2013-05-14 04:28:00,
2013-05-13 23:33:00,50.4,43.8,30.09,SE,131,0.0,0.0,78,0.00,,,0.00,Wunderground v.1.15,2013-05-14 04:33:00,
2013-05-13 23:38:00,50.4,43.8,30.10,SE,131,0.0,0.0,78,0.00,,,0.00,Wunderground v.1.15,2013-05-14 04:38:00,
2013-05-13 23:43:00,50.3,44.0,30.09,SE,131,0.0,0.0,79,0.00,,,0.00,Wunderground v.1.15,2013-05-14 04:43:00,
2013-05-13 23:49:00,50.3,43.7,30.09,SE,131,0.0,0.0,78,0.00,,,0.00,Wunderground v.1.15,2013-05-14 04:49:00,
2013-05-13 23:54:00,50.3,43.4,30.09,SE,131,0.0,0.0,77,0.00,,,0.00,Wunderground v.1.15,2013-05-14 04:54:00,
2013-05-13 23:59:00,50.4,43.8,30.09,SE,131,0.0,0.0,78,0.00,,,0.00,Wunderground v.1.15,2013-05-14 04:59:00,